Time;durP1;ratioP1;P1;durP2;ratioP2;P2;SDS_P1;SDS_P2;PMS_P1;PMS_P2;Temp;Humidity;BMP_temperature;BMP_pressure;BME280_temperature;BME280_humidity;BME280_pressure;Samples;Min_cycle;Max_cycle;Signal;HPM_P1;HPM_P2
2021/08/22 00:00:00;;;;;;;1035.00;933.95;;;;;;;;;;5049779;28;20112;-79
2021/08/22 00:02:26;;;;;;;1016.97;917.60;;;;;;;;;;5034140;28;20083;-78
2021/08/22 00:04:51;;;;;;;1039.20;938.28;;;;;;;;;;5029908;28;20061;-78
2021/08/22 00:07:17;;;;;;;1043.80;942.42;;;;;;;;;;5042004;28;20013;-78
2021/08/22 00:09:43;;;;;;;961.47;866.30;;;;;;;;;;5052607;28;20064;-78
2021/08/22 00:12:09;;;;;;;1042.47;941.20;;;;;;;;;;5056824;28;20025;-77
2021/08/22 00:14:35;;;;;;;1046.45;945.08;;;;;;;;;;5049928;28;20033;-79
2021/08/22 00:17:01;;;;;;;1052.45;950.80;;;;;;;;;;5048202;28;20025;-78
2021/08/22 00:19:29;;;;;;;1054.93;953.28;;;;;;;;;;5045979;28;20076;-77
2021/08/22 00:21:55;;;;;;;1054.82;953.28;;;;;;;;;;5022321;28;20039;-78
2021/08/22 00:24:21;;;;;;;1053.13;951.55;;;;;;;;;;5049705;28;20033;-78
2021/08/22 00:26:47;;;;;;;1055.07;953.70;;;;;;;;;;5048849;28;20445;-78
2021/08/22 00:29:14;;;;;;;1059.57;957.67;;;;;;;;;;5044572;28;20039;-77
2021/08/22 00:31:40;;;;;;;1059.50;957.70;;;;;;;;;;5049148;28;20032;-77
2021/08/22 00:34:05;;;;;;;1062.45;960.42;;;;;;;;;;5032457;28;20036;-77
2021/08/22 00:36:31;;;;;;;1061.50;959.88;;;;;;;;;;5032289;28;20094;-78
2021/08/22 00:38:57;;;;;;;1054.75;953.17;;;;;;;;;;5048504;28;20059;-78
2021/08/22 00:41:23;;;;;;;1070.65;968.40;;;;;;;;;;5046471;28;20556;-77
2021/08/22 00:43:49;;;;;;;1065.78;963.72;;;;;;;;;;5048821;28;20041;-78
2021/08/22 00:46:17;;;;;;;1067.22;965.17;;;;;;;;;;5066128;28;20025;-79
2021/08/22 00:48:44;;;;;;;1059.00;957.33;;;;;;;;;;5050849;28;20045;-77
2021/08/22 00:51:12;;;;;;;1053.95;952.58;;;;;;;;;;5066257;28;20114;-77
2021/08/22 00:53:38;;;;;;;1058.95;957.20;;;;;;;;;;5049017;28;20037;-78
2021/08/22 00:56:04;;;;;;;1066.65;964.33;;;;;;;;;;5048858;28;20060;-79
2021/08/22 00:58:31;;;;;;;1058.47;957.28;;;;;;;;;;5051349;28;20120;-79
2021/08/22 01:00:59;;;;;;;1060.10;958.28;;;;;;;;;;5046163;28;20028;-78
2021/08/22 01:03:43;;;;;;;1067.88;965.35;;;;;;;;;;5047813;28;20029;-78
2021/08/22 01:06:18;;;;;;;1060.03;958.38;;;;;;;;;;5031080;28;20036;-78
2021/08/22 01:08:49;;;;;;;1060.13;957.92;;;;;;;;;;5050254;28;20071;-78
2021/08/22 01:11:16;;;;;;;1061.13;959.28;;;;;;;;;;5046976;28;20120;-78
2021/08/22 01:13:45;;;;;;;1067.28;965.22;;;;;;;;;;5042981;28;20644;-78
2021/08/22 01:16:13;;;;;;;1060.28;958.58;;;;;;;;;;5022989;28;20032;-78
2021/08/22 01:18:40;;;;;;;1060.63;958.70;;;;;;;;;;5027130;28;20025;-79
2021/08/22 01:21:10;;;;;;;1061.88;959.92;;;;;;;;;;5048476;28;20086;-78
2021/08/22 01:23:57;;;;;;;1057.10;955.40;;;;;;;;;;5047333;28;20040;-78
2021/08/22 01:26:29;;;;;;;1049.90;948.05;;;;;;;;;;5030574;28;20040;-77
2021/08/22 01:28:56;;;;;;;1049.18;947.97;;;;;;;;;;5027110;28;20029;-78
2021/08/22 01:31:26;;;;;;;1047.20;945.97;;;;;;;;;;5048660;28;20018;-77
2021/08/22 01:33:54;;;;;;;1046.43;945.53;;;;;;;;;;5047012;28;20469;-79
2021/08/22 01:36:21;;;;;;;1043.38;942.65;;;;;;;;;;5047267;28;20571;-79
2021/08/22 01:38:47;;;;;;;1044.28;943.40;;;;;;;;;;5027684;28;20478;-78
2021/08/22 01:41:13;;;;;;;1050.38;949.05;;;;;;;;;;5045149;28;20025;-78
2021/08/22 01:43:40;;;;;;;1052.00;950.63;;;;;;;;;;5047544;28;20033;-78
2021/08/22 01:46:06;;;;;;;1048.55;947.53;;;;;;;;;;5030310;28;20623;-78
2021/08/22 01:48:33;;;;;;;1046.53;945.85;;;;;;;;;;5023412;28;20098;-78
2021/08/22 01:51:00;;;;;;;1043.32;942.17;;;;;;;;;;5048038;28;20029;-77
2021/08/22 01:53:27;;;;;;;1054.63;952.97;;;;;;;;;;5039781;28;20647;-79
2021/08/22 01:55:53;;;;;;;1057.43;955.60;;;;;;;;;;5047918;28;20103;-78
2021/08/22 01:58:21;;;;;;;1050.05;948.70;;;;;;;;;;5047292;28;20086;-78
2021/08/22 02:00:47;;;;;;;1054.80;953.22;;;;;;;;;;5047993;28;20502;-78
2021/08/22 02:03:18;;;;;;;1057.97;956.30;;;;;;;;;;5044615;28;20099;-79
2021/08/22 02:05:45;;;;;;;1051.22;949.33;;;;;;;;;;5030972;28;20028;-78
2021/08/22 02:08:14;;;;;;;1055.50;953.88;;;;;;;;;;5049593;28;20029;-78
2021/08/22 02:10:46;;;;;;;1055.80;953.97;;;;;;;;;;5049203;28;20032;-79
2021/08/22 02:13:13;;;;;;;1059.18;956.67;;;;;;;;;;5049018;28;20025;-79
2021/08/22 02:15:43;;;;;;;1045.93;944.70;;;;;;;;;;5047919;28;20032;-81
2021/08/22 02:18:12;;;;;;;;;;;;;;;;;;5039148;28;20029;-79
2021/08/22 02:20:38;;;;;;;1022.35;921.85;;;;;;;;;;5031212;28;19962;-80
2021/08/22 02:23:05;;;;;;;1044.72;943.03;;;;;;;;;;5045632;28;20186;-79
2021/08/22 02:25:31;;;;;;;1043.55;942.28;;;;;;;;;;5047724;28;20036;-79
2021/08/22 02:27:57;;;;;;;1045.53;944.20;;;;;;;;;;5044116;28;20029;-79
2021/08/22 02:30:23;;;;;;;1035.93;935.05;;;;;;;;;;5029376;28;20036;-78
2021/08/22 02:32:49;;;;;;;1047.00;945.35;;;;;;;;;;5034290;28;20039;-79
2021/08/22 02:35:15;;;;;;;1060.25;957.83;;;;;;;;;;5023187;28;20721;-79
2021/08/22 02:37:41;;;;;;;1052.35;951.00;;;;;;;;;;5051296;28;20032;-79
2021/08/22 02:40:08;;;;;;;1044.75;943.17;;;;;;;;;;5036318;28;20053;-79
2021/08/22 02:42:34;;;;;;;1039.13;938.58;;;;;;;;;;5046516;28;20406;-80
2021/08/22 02:45:00;;;;;;;1043.55;942.45;;;;;;;;;;5029873;28;20033;-80
2021/08/22 02:47:25;;;;;;;1042.38;941.17;;;;;;;;;;5045721;28;20099;-80
2021/08/22 02:49:51;;;;;;;1041.22;940.40;;;;;;;;;;5040539;28;20031;-80
2021/08/22 02:52:17;;;;;;;1035.93;934.85;;;;;;;;;;5043979;28;20047;-80
2021/08/22 02:54:43;;;;;;;1037.60;935.50;;;;;;;;;;5047460;28;20043;-80
2021/08/22 02:57:09;;;;;;;1151.38;937.40;;;;;;;;;;5047237;28;20099;-80
2021/08/22 02:59:35;;;;;;;1021.60;921.42;;;;;;;;;;5046045;28;20397;-80
2021/08/22 03:02:01;;;;;;;1040.88;939.78;;;;;;;;;;5029532;28;20180;-78
2021/08/22 03:04:27;;;;;;;1040.20;939.25;;;;;;;;;;5029185;28;20117;-80
2021/08/22 03:06:53;;;;;;;1042.53;941.20;;;;;;;;;;5044747;28;20405;-78
2021/08/22 03:09:19;;;;;;;1041.95;938.22;;;;;;;;;;5043602;28;20021;-81
2021/08/22 03:11:45;;;;;;;1042.38;941.10;;;;;;;;;;5046660;28;20024;-79
2021/08/22 03:14:12;;;;;;;1039.55;938.35;;;;;;;;;;5027436;28;20037;-79
2021/08/22 03:16:38;;;;;;;1032.28;931.25;;;;;;;;;;5046060;28;20055;-79
2021/08/22 03:19:04;;;;;;;1029.97;928.83;;;;;;;;;;5046072;28;20060;-78
2021/08/22 03:21:31;;;;;;;1040.88;939.28;;;;;;;;;;5044536;28;20454;-79
2021/08/22 03:23:57;;;;;;;1029.40;928.47;;;;;;;;;;5045844;28;20439;-79
2021/08/22 03:26:23;;;;;;;1033.13;931.67;;;;;;;;;;5047207;28;20017;-78
2021/08/22 03:28:49;;;;;;;1034.18;933.13;;;;;;;;;;5027212;28;20112;-78
2021/08/22 03:31:14;;;;;;;1032.90;931.65;;;;;;;;;;5032453;28;20367;-78
2021/08/22 03:33:40;;;;;;;1037.45;936.17;;;;;;;;;;5049647;28;20037;-78
2021/08/22 03:36:06;;;;;;;1032.05;931.08;;;;;;;;;;5034475;28;20703;-80
2021/08/22 03:38:32;;;;;;;1156.38;714.20;;;;;;;;;;5032602;28;20466;-78
2021/08/22 03:40:58;;;;;;;1185.97;922.53;;;;;;;;;;5050843;28;20029;-79
2021/08/22 03:43:24;;;;;;;1034.63;933.38;;;;;;;;;;5040754;28;20044;-78
2021/08/22 03:45:50;;;;;;;1040.18;938.58;;;;;;;;;;5050854;28;20553;-79
2021/08/22 03:48:16;;;;;;;1031.78;930.28;;;;;;;;;;5048286;28;20044;-79
2021/08/22 03:50:42;;;;;;;1036.50;935.33;;;;;;;;;;5033563;28;20641;-78
2021/08/22 03:53:08;;;;;;;1037.97;936.45;;;;;;;;;;5030319;28;20025;-79
2021/08/22 03:55:34;;;;;;;1034.57;933.45;;;;;;;;;;5050447;28;20443;-79
2021/08/22 03:58:00;;;;;;;1035.53;933.95;;;;;;;;;;5048966;28;20475;-79
2021/08/22 04:00:26;;;;;;;1040.47;939.00;;;;;;;;;;5048912;28;20550;-80
2021/08/22 04:02:52;;;;;;;1014.45;914.53;;;;;;;;;;5050345;28;20025;-79
2021/08/22 04:05:18;;;;;;;992.00;893.67;;;;;;;;;;5038497;28;20032;-80
2021/08/22 04:07:48;;;;;;;850.15;763.70;;;;;;;;;;5040008;28;20029;-80
2021/08/22 04:10:14;;;;;;;1032.07;930.80;;;;;;;;;;5032891;28;20423;-79
2021/08/22 04:12:40;;;;;;;1030.10;928.95;;;;;;;;;;5049901;28;20063;-78
2021/08/22 04:15:06;;;;;;;1039.43;937.63;;;;;;;;;;5038319;28;20040;-78
2021/08/22 04:17:32;;;;;;;1035.53;934.25;;;;;;;;;;5048158;28;20029;-80
2021/08/22 04:19:58;;;;;;;1038.25;936.95;;;;;;;;;;5027804;28;20040;-79
2021/08/22 04:22:24;;;;;;;1038.80;937.25;;;;;;;;;;5021006;28;20055;-79
2021/08/22 04:24:50;;;;;;;1037.35;935.95;;;;;;;;;;5049347;28;20032;-79
2021/08/22 04:27:16;;;;;;;1026.38;925.65;;;;;;;;;;5050329;28;20029;-80
2021/08/22 04:29:42;;;;;;;1040.03;938.30;;;;;;;;;;5047578;28;20025;-79
2021/08/22 04:32:09;;;;;;;1032.88;931.67;;;;;;;;;;5029584;28;20104;-79
2021/08/22 04:34:35;;;;;;;1034.50;933.25;;;;;;;;;;5043275;28;20033;-78
2021/08/22 04:37:01;;;;;;;1032.22;931.33;;;;;;;;;;5024934;28;20068;-79
2021/08/22 04:39:27;;;;;;;1030.10;928.72;;;;;;;;;;5032453;28;20052;-78
2021/08/22 04:41:53;;;;;;;1031.25;930.13;;;;;;;;;;5033850;28;20033;-79
2021/08/22 04:44:19;;;;;;;1034.38;933.17;;;;;;;;;;5032445;28;20087;-79
2021/08/22 04:46:46;;;;;;;1026.53;925.40;;;;;;;;;;5049054;28;20040;-78
2021/08/22 04:49:12;;;;;;;1022.22;921.28;;;;;;;;;;5048768;28;20049;-79
2021/08/22 04:51:38;;;;;;;1029.72;928.47;;;;;;;;;;5048773;28;20608;-79
2021/08/22 04:54:04;;;;;;;1023.58;923.17;;;;;;;;;;5051027;28;20067;-80
2021/08/22 04:56:30;;;;;;;1034.57;933.00;;;;;;;;;;5021447;28;20028;-79
2021/08/22 04:58:56;;;;;;;1044.88;942.72;;;;;;;;;;5031486;28;20032;-80
2021/08/22 05:01:22;;;;;;;1032.22;931.15;;;;;;;;;;5048920;28;20060;-79
2021/08/22 05:03:48;;;;;;;1034.22;933.03;;;;;;;;;;5049575;28;20029;-80
2021/08/22 05:06:14;;;;;;;1031.30;930.25;;;;;;;;;;5049460;28;20021;-79
2021/08/22 05:08:40;;;;;;;1037.30;935.53;;;;;;;;;;5032597;28;20025;-79
2021/08/22 05:11:06;;;;;;;1026.72;926.05;;;;;;;;;;5032157;28;20112;-79
2021/08/22 05:13:37;;;;;;;1030.68;929.67;;;;;;;;;;5048275;28;20033;-78
2021/08/22 05:16:03;;;;;;;1030.05;929.35;;;;;;;;;;5030843;28;20112;-77
2021/08/22 05:18:29;;;;;;;1025.90;925.30;;;;;;;;;;5048789;28;20025;-80
2021/08/22 05:20:55;;;;;;;1032.07;930.40;;;;;;;;;;5046606;28;20021;-80
2021/08/22 05:23:21;;;;;;;1036.28;935.00;;;;;;;;;;5048370;28;20025;-79
2021/08/22 05:25:47;;;;;;;1035.53;934.17;;;;;;;;;;5046562;28;20025;-78
2021/08/22 05:28:13;;;;;;;1040.10;938.53;;;;;;;;;;5048217;28;20017;-81
2021/08/22 05:30:39;;;;;;;1031.32;930.13;;;;;;;;;;5044236;28;20031;-79
2021/08/22 05:33:05;;;;;;;1036.75;935.42;;;;;;;;;;5035262;28;20423;-79
2021/08/22 05:35:31;;;;;;;1042.07;940.53;;;;;;;;;;5038041;28;20044;-79
2021/08/22 05:37:57;;;;;;;1040.93;939.58;;;;;;;;;;5048119;28;20025;-79
2021/08/22 05:40:23;;;;;;;1041.53;939.85;;;;;;;;;;5031908;28;20066;-80
2021/08/22 05:42:49;;;;;;;1048.97;946.88;;;;;;;;;;5030493;28;20032;-80
2021/08/22 05:45:15;;;;;;;1049.90;948.10;;;;;;;;;;5045624;28;20033;-79
2021/08/22 05:47:41;;;;;;;1054.80;952.72;;;;;;;;;;5047246;28;20056;-79
2021/08/22 05:50:07;;;;;;;1047.25;945.35;;;;;;;;;;5031482;28;20652;-80
2021/08/22 05:52:37;;;;;;;1045.75;943.58;;;;;;;;;;5032440;28;20020;-78
2021/08/22 05:55:06;;;;;;;1038.38;937.10;;;;;;;;;;5031526;28;20037;-80
2021/08/22 05:57:33;;;;;;;1035.53;934.17;;;;;;;;;;5046976;28;20600;-79
2021/08/22 05:59:59;;;;;;;1031.88;930.80;;;;;;;;;;5053745;28;20061;-80
2021/08/22 06:02:25;;;;;;;1041.57;940.00;;;;;;;;;;5027345;28;20502;-79
2021/08/22 06:04:51;;;;;;;1038.72;937.42;;;;;;;;;;5027743;28;20052;-78
2021/08/22 06:07:20;;;;;;;1068.25;964.55;;;;;;;;;;5036837;28;20028;-79
2021/08/22 06:09:50;;;;;;;1063.82;960.55;;;;;;;;;;5047719;28;20017;-79
2021/08/22 06:12:16;;;;;;;1067.55;964.13;;;;;;;;;;5046622;28;20102;-79
2021/08/22 06:14:42;;;;;;;1072.25;968.50;;;;;;;;;;5047935;28;20037;-80
2021/08/22 06:17:08;;;;;;;1066.40;962.80;;;;;;;;;;5047249;28;20447;-80
2021/08/22 06:19:34;;;;;;;1061.82;958.30;;;;;;;;;;5047956;28;20036;-79
2021/08/22 06:22:00;;;;;;;1066.18;962.63;;;;;;;;;;5044763;28;20033;-80
2021/08/22 06:24:26;;;;;;;1067.35;963.60;;;;;;;;;;5029963;28;20098;-79
2021/08/22 06:26:52;;;;;;;1071.90;968.28;;;;;;;;;;5045740;28;20044;-80
2021/08/22 06:29:18;;;;;;;1060.40;957.33;;;;;;;;;;5047244;28;20121;-79
2021/08/22 06:31:44;;;;;;;1065.03;961.72;;;;;;;;;;5053102;28;20029;-79
2021/08/22 06:34:10;;;;;;;1061.30;958.00;;;;;;;;;;5046537;28;20033;-78
2021/08/22 06:36:39;;;;;;;1070.60;967.15;;;;;;;;;;5051374;28;20352;-78
2021/08/22 06:39:06;;;;;;;1065.78;962.47;;;;;;;;;;5048332;28;20028;-79
2021/08/22 06:41:33;;;;;;;1070.55;966.50;;;;;;;;;;5035444;28;20033;-79
2021/08/22 06:43:59;;;;;;;1071.32;967.65;;;;;;;;;;5046469;28;20092;-79
2021/08/22 06:46:25;;;;;;;1066.00;962.55;;;;;;;;;;5047272;28;20649;-79
2021/08/22 06:48:51;;;;;;;1066.85;963.95;;;;;;;;;;5033263;28;20662;-79
2021/08/22 06:51:17;;;;;;;980.40;885.38;;;;;;;;;;5050605;28;20059;-80
2021/08/22 06:53:43;;;;;;;986.70;891.40;;;;;;;;;;5043412;28;20037;-80
2021/08/22 06:56:08;;;;;;;867.67;780.78;;;;;;;;;;5029637;28;20069;-79
2021/08/22 06:58:34;;;;;;;838.90;754.47;;;;;;;;;;5030208;28;20398;-79
2021/08/22 07:01:01;;;;;;;756.97;677.15;;;;;;;;;;5050819;28;20040;-78
2021/08/22 07:03:27;;;;;;;764.83;684.72;;;;;;;;;;5048156;28;20074;-78
2021/08/22 07:05:52;;;;;;;775.55;694.75;;;;;;;;;;5052292;28;20539;-79
2021/08/22 07:08:19;;;;;;;990.08;893.83;;;;;;;;;;5049784;28;20433;-78
2021/08/22 07:10:45;;;;;;;925.95;834.95;;;;;;;;;;5051747;28;20420;-80
2021/08/22 07:13:11;;;;;;;893.65;804.90;;;;;;;;;;5033307;28;20044;-77
2021/08/22 07:15:36;;;;;;;872.17;784.70;;;;;;;;;;5033099;28;20071;-78
2021/08/22 07:18:02;;;;;;;991.70;895.10;;;;;;;;;;5038735;28;20029;-79
2021/08/22 07:20:28;;;;;;;1009.42;911.38;;;;;;;;;;5046048;28;20108;-78
2021/08/22 07:22:54;;;;;;;954.25;859.90;;;;;;;;;;5062907;28;20064;-79
2021/08/22 07:25:21;;;;;;;946.08;853.15;;;;;;;;;;5052329;28;20075;-80
2021/08/22 07:27:48;;;;;;;961.97;868.47;;;;;;;;;;5059283;28;20033;-79
2021/08/22 07:30:14;;;;;;;968.97;874.70;;;;;;;;;;5032472;28;20021;-79
2021/08/22 07:32:40;;;;;;;949.65;856.88;;;;;;;;;;5037262;28;20239;-78
2021/08/22 07:35:06;;;;;;;919.90;829.60;;;;;;;;;;5031851;28;20033;-79
2021/08/22 07:37:32;;;;;;;906.30;816.83;;;;;;;;;;5038323;28;20263;-79
2021/08/22 07:39:58;;;;;;;1042.95;940.08;;;;;;;;;;5049203;28;20052;-78
2021/08/22 07:42:24;;;;;;;1029.55;930.15;;;;;;;;;;5048966;28;20435;-80
2021/08/22 07:44:50;;;;;;;993.90;897.97;;;;;;;;;;5032646;28;20036;-78
2021/08/22 07:47:16;;;;;;;978.33;884.05;;;;;;;;;;5032612;28;20568;-79
2021/08/22 07:49:42;;;;;;;937.03;845.38;;;;;;;;;;5046835;28;20124;-80
2021/08/22 07:52:08;;;;;;;1006.10;909.35;;;;;;;;;;5050518;28;20059;-78
2021/08/22 07:54:34;;;;;;;1026.78;928.45;;;;;;;;;;5034809;28;20037;-78
2021/08/22 07:57:01;;;;;;;1005.25;908.55;;;;;;;;;;5049820;28;20083;-79
2021/08/22 07:59:27;;;;;;;972.88;879.33;;;;;;;;;;5037354;28;20020;-80
2021/08/22 08:01:53;;;;;;;1048.13;947.67;;;;;;;;;;5049915;28;20021;-81
2021/08/22 08:04:19;;;;;;;1032.68;934.20;;;;;;;;;;5049369;28;20475;-79
2021/08/22 08:06:45;;;;;;;1007.67;910.40;;;;;;;;;;5051485;28;20344;-81
2021/08/22 08:09:11;;;;;;;1030.88;932.40;;;;;;;;;;5032961;28;20407;-79
2021/08/22 08:11:37;;;;;;;1033.15;934.83;;;;;;;;;;5049396;28;20025;-80
2021/08/22 08:14:03;;;;;;;1056.93;956.25;;;;;;;;;;5048735;28;20466;-79
2021/08/22 08:16:32;;;;;;;1028.63;930.60;;;;;;;;;;5048121;28;20029;-79
2021/08/22 08:18:58;;;;;;;977.03;883.83;;;;;;;;;;5040865;28;20459;-78
2021/08/22 08:21:24;;;;;;;951.55;860.38;;;;;;;;;;5031455;28;20040;-79
2021/08/22 08:23:50;;;;;;;935.53;845.10;;;;;;;;;;5048939;28;20021;-78
2021/08/22 08:26:16;;;;;;;864.15;779.17;;;;;;;;;;5038935;28;20040;-79
2021/08/22 08:28:42;;;;;;;855.25;770.47;;;;;;;;;;5042246;28;20087;-78
2021/08/22 08:31:08;;;;;;;912.50;824.13;;;;;;;;;;5050014;28;20057;-76
2021/08/22 08:33:34;;;;;;;983.65;889.45;;;;;;;;;;5048823;28;20119;-80
2021/08/22 08:36:00;;;;;;;881.60;795.17;;;;;;;;;;5054941;28;20017;-81
2021/08/22 08:38:26;;;;;;;827.85;744.80;;;;;;;;;;5029251;28;20045;-79
2021/08/22 08:40:52;;;;;;;971.05;877.88;;;;;;;;;;5051632;28;20057;-79
2021/08/22 08:43:18;;;;;;;872.60;786.33;;;;;;;;;;5040776;28;20110;-80
2021/08/22 08:45:44;;;;;;;993.47;898.40;;;;;;;;;;5048792;28;20029;-81
2021/08/22 08:48:10;;;;;;;925.55;836.17;;;;;;;;;;5024987;28;20061;-80
2021/08/22 08:50:39;;;;;;;943.20;852.22;;;;;;;;;;5013365;28;20022;-79
2021/08/22 08:53:09;;;;;;;905.78;818.10;;;;;;;;;;5029298;28;20021;-79
2021/08/22 08:55:49;;;;;;;867.00;782.35;;;;;;;;;;5024089;28;20029;-78
2021/08/22 08:58:15;;;;;;;1030.50;932.97;;;;;;;;;;5012622;28;20029;-80
2021/08/22 09:00:42;;;;;;;938.80;848.90;;;;;;;;;;5029618;28;20103;-79
2021/08/22 09:03:08;;;;;;;859.17;775.70;;;;;;;;;;5026657;28;21196;-78
2021/08/22 09:05:37;;;;;;;922.88;834.78;;;;;;;;;;5027509;28;20024;-79
2021/08/22 09:08:32;;;;;;;970.47;878.70;;;;;;;;;;5038697;28;20203;-79
2021/08/22 09:11:17;;;;;;;991.47;897.67;;;;;;;;;;5044529;28;20614;-79
2021/08/22 09:13:50;;;;;;;921.42;833.03;;;;;;;;;;5028939;28;20029;-79
2021/08/22 09:16:17;;;;;;;933.80;844.47;;;;;;;;;;5032025;28;20029;-79
2021/08/22 09:18:46;;;;;;;998.45;903.28;;;;;;;;;;5048839;28;20032;-79
2021/08/22 09:21:31;;;;;;;947.00;856.55;;;;;;;;;;5049743;28;20530;-79
2021/08/22 09:24:16;;;;;;;914.20;826.22;;;;;;;;;;5047975;28;20269;-80
2021/08/22 09:27:04;;;;;;;951.13;860.42;;;;;;;;;;5048153;28;20024;-79
2021/08/22 09:29:49;;;;;;;1112.80;999.75;;;;;;;;;;5028088;28;20037;-79
2021/08/22 09:32:34;;;;;;;1124.85;999.90;;;;;;;;;;5024301;28;20076;-80
2021/08/22 09:35:16;;;;;;;1129.55;999.90;;;;;;;;;;5011137;28;20032;-79
2021/08/22 09:38:00;;;;;;;1121.78;999.90;;;;;;;;;;5047510;28;20766;-80
2021/08/22 09:40:36;;;;;;;1124.13;999.90;;;;;;;;;;5030841;28;20270;-79
2021/08/22 09:43:21;;;;;;;1031.65;934.63;;;;;;;;;;5022789;28;20036;-78
2021/08/22 09:46:10;;;;;;;1124.78;999.90;;;;;;;;;;5035271;28;20099;-78
2021/08/22 09:48:55;;;;;;;1117.25;999.90;;;;;;;;;;5047144;28;20056;-80
2021/08/22 09:51:40;;;;;;;1121.32;999.90;;;;;;;;;;5048946;28;20104;-81
2021/08/22 09:54:25;;;;;;;1127.13;999.90;;;;;;;;;;5047529;28;20029;-80
2021/08/22 09:57:10;;;;;;;1123.45;999.90;;;;;;;;;;5043453;28;20057;-80
2021/08/22 09:59:52;;;;;;;1135.88;999.90;;;;;;;;;;5056158;28;20339;-79
2021/08/22 10:02:37;;;;;;;1126.22;999.90;;;;;;;;;;5058907;28;20025;-78
2021/08/22 10:05:22;;;;;;;1121.35;999.90;;;;;;;;;;5027950;28;20356;-80
2021/08/22 10:08:07;;;;;;;1098.88;995.15;;;;;;;;;;5027711;28;20029;-78
2021/08/22 10:10:38;;;;;;;1101.55;996.60;;;;;;;;;;5047990;28;20032;-80
2021/08/22 10:13:05;;;;;;;1099.70;995.83;;;;;;;;;;5067405;28;20020;-79
2021/08/22 10:15:32;;;;;;;1101.07;996.63;;;;;;;;;;5067622;28;20025;-79
2021/08/22 10:18:03;;;;;;;1116.35;999.90;;;;;;;;;;5030983;28;20040;-80
2021/08/22 10:20:47;;;;;;;1084.60;983.50;;;;;;;;;;5030346;28;20025;-80
2021/08/22 10:23:32;;;;;;;930.92;843.15;;;;;;;;;;5028235;28;20064;-78
2021/08/22 10:26:00;;;;;;;795.90;717.30;;;;;;;;;;5028252;28;20347;-79
2021/08/22 10:28:45;;;;;;;745.65;669.65;;;;;;;;;;5026291;28;20025;-79
2021/08/22 10:31:15;;;;;;;745.25;669.20;;;;;;;;;;5047327;28;20032;-79
2021/08/22 10:34:00;;;;;;;758.00;681.45;;;;;;;;;;5042730;28;20082;-79
2021/08/22 10:36:30;;;;;;;756.00;679.50;;;;;;;;;;5063832;28;20443;-79
2021/08/22 10:39:15;;;;;;;713.60;638.97;;;;;;;;;;5029222;28;20029;-80
2021/08/22 10:41:45;;;;;;;736.38;661.30;;;;;;;;;;5029372;28;20044;-77
2021/08/22 10:44:41;;;;;;;677.47;605.45;;;;;;;;;;5047286;28;20021;-80
2021/08/22 10:47:08;;;;;;;662.28;590.95;;;;;;;;;;5019711;28;20021;-80
2021/08/22 10:49:53;;;;;;;671.40;599.85;;;;;;;;;;5046905;28;20070;-79
2021/08/22 10:52:19;;;;;;;667.58;596.03;;;;;;;;;;5010724;28;20033;-79
2021/08/22 10:55:05;;;;;;;726.53;652.25;;;;;;;;;;5029399;28;20112;-79
2021/08/22 10:57:44;;;;;;;729.67;655.60;;;;;;;;;;5047352;28;20572;-79
2021/08/22 11:00:31;;;;;;;760.30;685.17;;;;;;;;;;5028006;28;20021;-78
2021/08/22 11:02:58;;;;;;;736.25;662.65;;;;;;;;;;5044703;28;20127;-79
2021/08/22 11:05:25;;;;;;;903.42;819.97;;;;;;;;;;5047278;28;20031;-79
2021/08/22 11:07:52;;;;;;;1032.65;939.13;;;;;;;;;;5029869;28;20390;-79
2021/08/22 11:10:20;;;;;;;1156.72;999.90;;;;;;;;;;5029528;28;20433;-79
2021/08/22 11:12:46;;;;;;;1159.75;999.90;;;;;;;;;;5049677;28;20020;-79
2021/08/22 11:15:26;;;;;;;1164.07;999.90;;;;;;;;;;5047051;28;20248;-79
2021/08/22 11:17:55;;;;;;;1151.90;999.90;;;;;;;;;;5046902;28;20040;-78
2021/08/22 11:20:23;;;;;;;1148.10;999.90;;;;;;;;;;5041753;28;20040;-79
2021/08/22 11:22:51;;;;;;;1142.13;999.90;;;;;;;;;;5042754;28;20033;-79
2021/08/22 11:25:17;;;;;;;1130.78;999.90;;;;;;;;;;5047255;28;20021;-78
2021/08/22 11:27:45;;;;;;;1125.07;999.90;;;;;;;;;;5045339;28;20502;-80
2021/08/22 11:30:12;;;;;;;1118.97;999.90;;;;;;;;;;5042944;28;20027;-79
2021/08/22 11:32:38;;;;;;;1115.15;999.90;;;;;;;;;;5047072;28;20017;-79
2021/08/22 11:35:10;;;;;;;1108.75;999.17;;;;;;;;;;5045227;28;20043;-79
2021/08/22 11:37:36;;;;;;;1108.35;998.83;;;;;;;;;;5038343;28;20025;-79
2021/08/22 11:40:07;;;;;;;1118.13;999.90;;;;;;;;;;5045960;28;20054;-79
2021/08/22 11:42:33;;;;;;;1118.00;999.90;;;;;;;;;;5042665;28;20029;-79
2021/08/22 11:45:25;;;;;;;1118.25;999.90;;;;;;;;;;5038650;28;20116;-80
2021/08/22 11:47:51;;;;;;;1121.60;999.90;;;;;;;;;;5026752;28;20114;-79
2021/08/22 11:50:20;;;;;;;1123.63;999.90;;;;;;;;;;5043076;28;20408;-79
2021/08/22 11:52:48;;;;;;;1115.60;999.90;;;;;;;;;;5050742;28;20033;-79
2021/08/22 11:55:14;;;;;;;1109.30;999.47;;;;;;;;;;5049937;28;20056;-79
2021/08/22 11:57:41;;;;;;;1108.03;999.05;;;;;;;;;;5030909;28;20028;-78
2021/08/22 12:00:27;;;;;;;1097.97;993.75;;;;;;;;;;5048550;28;20049;-79
2021/08/22 12:02:54;;;;;;;1087.05;983.38;;;;;;;;;;5019608;28;20467;-80
2021/08/22 12:05:25;;;;;;;1087.50;983.83;;;;;;;;;;5020259;28;20059;-79
2021/08/22 12:08:02;;;;;;;1081.88;978.42;;;;;;;;;;5032916;28;20091;-79
2021/08/22 12:10:29;;;;;;;1081.38;977.88;;;;;;;;;;5052690;28;20190;-79
2021/08/22 12:12:56;;;;;;;1091.13;986.65;;;;;;;;;;5048938;28;20057;-79
2021/08/22 12:15:38;;;;;;;1073.05;970.17;;;;;;;;;;5049855;28;20071;-79
2021/08/22 12:18:21;;;;;;;1067.13;964.65;;;;;;;;;;5048144;28;20047;-79
2021/08/22 12:20:52;;;;;;;1063.63;961.63;;;;;;;;;;5052271;28;20071;-78
2021/08/22 12:23:27;;;;;;;1081.85;977.92;;;;;;;;;;5051294;28;20021;-78
2021/08/22 12:25:54;;;;;;;1072.30;969.05;;;;;;;;;;5050791;28;20040;-79
2021/08/22 12:28:20;;;;;;;1081.95;977.75;;;;;;;;;;5046927;28;20489;-79
2021/08/22 12:30:49;;;;;;;1066.38;963.78;;;;;;;;;;5028990;28;20029;-80
2021/08/22 12:33:32;;;;;;;1067.85;965.05;;;;;;;;;;5041944;28;20036;-79
2021/08/22 12:36:04;;;;;;;1057.00;955.15;;;;;;;;;;5049048;28;20032;-78
2021/08/22 12:38:53;;;;;;;1067.53;965.08;;;;;;;;;;5041724;28;20021;-79
2021/08/22 12:41:25;;;;;;;1065.30;962.45;;;;;;;;;;5019901;28;20536;-78
2021/08/22 12:43:51;;;;;;;1076.57;973.10;;;;;;;;;;5041086;28;20124;-79
2021/08/22 12:46:21;;;;;;;1084.47;980.53;;;;;;;;;;5034823;28;20025;-79
2021/08/22 12:48:47;;;;;;;1074.27;971.30;;;;;;;;;;5049704;28;20252;-79
2021/08/22 12:51:13;;;;;;;1087.30;983.33;;;;;;;;;;5051434;28;20116;-80
2021/08/22 12:53:39;;;;;;;1097.85;993.40;;;;;;;;;;5044583;28;20047;-79
2021/08/22 12:56:05;;;;;;;1097.00;992.58;;;;;;;;;;5045038;28;20021;-79
2021/08/22 12:58:31;;;;;;;1098.47;994.13;;;;;;;;;;5048495;28;20411;-78
2021/08/22 13:00:58;;;;;;;1107.90;999.28;;;;;;;;;;5048753;28;20025;-79
2021/08/22 13:03:24;;;;;;;1108.07;999.10;;;;;;;;;;5048014;28;20355;-79
2021/08/22 13:05:50;;;;;;;1110.50;999.75;;;;;;;;;;5048924;28;20021;-79
2021/08/22 13:08:17;;;;;;;1115.53;999.90;;;;;;;;;;5048546;28;20025;-79
2021/08/22 13:10:43;;;;;;;1124.60;999.90;;;;;;;;;;5048827;28;20029;-79
2021/08/22 13:13:09;;;;;;;1123.15;999.90;;;;;;;;;;5047488;28;20024;-79
2021/08/22 13:15:35;;;;;;;1129.15;999.90;;;;;;;;;;5048372;28;20072;-78
2021/08/22 13:18:01;;;;;;;1141.85;999.90;;;;;;;;;;5048397;28;20246;-79
2021/08/22 13:20:27;;;;;;;1149.13;999.90;;;;;;;;;;5048965;28;20082;-80
2021/08/22 13:22:53;;;;;;;1158.53;999.90;;;;;;;;;;5047775;28;20609;-79
2021/08/22 13:25:18;;;;;;;1167.18;999.90;;;;;;;;;;5048562;28;20260;-79
2021/08/22 13:27:44;;;;;;;1166.93;999.90;;;;;;;;;;5047660;28;20032;-79
2021/08/22 13:30:11;;;;;;;1168.85;999.90;;;;;;;;;;5048835;28;20044;-80
2021/08/22 13:32:37;;;;;;;1167.53;999.90;;;;;;;;;;5046233;28;20053;-79
2021/08/22 13:35:03;;;;;;;1162.35;999.90;;;;;;;;;;5027548;28;20104;-79
2021/08/22 13:37:29;;;;;;;1162.28;999.90;;;;;;;;;;5047923;28;20024;-79
2021/08/22 13:39:54;;;;;;;1146.07;999.90;;;;;;;;;;5030843;28;20040;-79
2021/08/22 13:42:20;;;;;;;1154.13;999.90;;;;;;;;;;5047651;28;20314;-79
2021/08/22 13:44:47;;;;;;;1147.13;999.90;;;;;;;;;;5045797;28;20149;-79
2021/08/22 13:47:13;;;;;;;1148.32;999.90;;;;;;;;;;5047794;28;20065;-81
2021/08/22 13:49:39;;;;;;;1140.28;999.90;;;;;;;;;;5047349;28;20036;-79
2021/08/22 13:52:05;;;;;;;1136.07;999.90;;;;;;;;;;5031753;28;20550;-76